sensor_id;sensor_type;location;lat;lon;timestamp;pressure;altitude;pressure_sealevel;temperature;humidity
75045;BME280;63614;56.026;35.960;2023-03-01T00:01:02;98560.06;;;-4.77;63.10
75045;BME280;63614;56.026;35.960;2023-03-01T00:03:28;98558.22;;;-4.75;63.45
75045;BME280;63614;56.026;35.960;2023-03-01T00:05:54;98553.84;;;-4.72;62.88
75045;BME280;63614;56.026;35.960;2023-03-01T00:08:20;98552.94;;;-4.71;62.86
75045;BME280;63614;56.026;35.960;2023-03-01T00:10:45;98555.91;;;-4.78;63.27
75045;BME280;63614;56.026;35.960;2023-03-01T00:13:11;98559.50;;;-4.80;63.37
75045;BME280;63614;56.026;35.960;2023-03-01T00:15:39;98559.59;;;-4.82;63.86
75045;BME280;63614;56.026;35.960;2023-03-01T00:18:05;98558.56;;;-4.79;63.85
75045;BME280;63614;56.026;35.960;2023-03-01T00:20:32;98558.88;;;-4.84;64.39
75045;BME280;63614;56.026;35.960;2023-03-01T00:22:57;98550.94;;;-4.79;63.99
75045;BME280;63614;56.026;35.960;2023-03-01T00:25:23;98555.97;;;-4.90;64.70
75045;BME280;63614;56.026;35.960;2023-03-01T00:27:49;98549.28;;;-4.92;64.90
75045;BME280;63614;56.026;35.960;2023-03-01T00:30:15;98548.94;;;-4.87;65.21
75045;BME280;63614;56.026;35.960;2023-03-01T00:32:41;98543.97;;;-4.88;64.81
75045;BME280;63614;56.026;35.960;2023-03-01T00:35:07;98543.97;;;-4.88;65.34
75045;BME280;63614;56.026;35.960;2023-03-01T00:37:33;98545.69;;;-5.00;65.52
75045;BME280;63614;56.026;35.960;2023-03-01T00:39:59;98542.47;;;-5.02;65.97
75045;BME280;63614;56.026;35.960;2023-03-01T00:42:25;98541.16;;;-5.08;66.26
75045;BME280;63614;56.026;35.960;2023-03-01T00:44:51;98546.13;;;-5.06;66.27
75045;BME280;63614;56.026;35.960;2023-03-01T00:47:16;98539.41;;;-5.07;66.27
75045;BME280;63614;56.026;35.960;2023-03-01T00:49:42;98531.44;;;-5.14;66.69
75045;BME280;63614;56.026;35.960;2023-03-01T00:52:08;98543.22;;;-5.13;66.72
75045;BME280;63614;56.026;35.960;2023-03-01T00:54:34;98535.72;;;-5.15;66.65
75045;BME280;63614;56.026;35.960;2023-03-01T00:57:00;98527.75;;;-5.21;67.17
75045;BME280;63614;56.026;35.960;2023-03-01T00:59:26;98529.22;;;-5.19;66.75
75045;BME280;63614;56.026;35.960;2023-03-01T01:01:51;98529.44;;;-5.22;66.73
75045;BME280;63614;56.026;35.960;2023-03-01T01:04:17;98531.50;;;-5.27;66.90
75045;BME280;63614;56.026;35.960;2023-03-01T01:06:45;98529.91;;;-5.28;67.07
75045;BME280;63614;56.026;35.960;2023-03-01T01:09:13;98529.41;;;-5.33;67.17
75045;BME280;63614;56.026;35.960;2023-03-01T01:11:47;98534.34;;;-5.32;66.86
75045;BME280;63614;56.026;35.960;2023-03-01T01:14:14;98536.78;;;-5.30;67.16
75045;BME280;63614;56.026;35.960;2023-03-01T01:16:40;98530.66;;;-5.39;67.19
75045;BME280;63614;56.026;35.960;2023-03-01T01:19:06;98531.56;;;-5.40;67.15
75045;BME280;63614;56.026;35.960;2023-03-01T01:21:32;98527.75;;;-5.45;67.69
75045;BME280;63614;56.026;35.960;2023-03-01T01:23:58;98527.63;;;-5.44;67.39
75045;BME280;63614;56.026;35.960;2023-03-01T01:26:27;98538.09;;;-5.49;67.58
75045;BME280;63614;56.026;35.960;2023-03-01T01:28:53;98526.00;;;-5.45;67.25
75045;BME280;63614;56.026;35.960;2023-03-01T01:31:20;98530.47;;;-5.49;67.60
75045;BME280;63614;56.026;35.960;2023-03-01T01:33:49;98531.88;;;-5.44;67.09
75045;BME280;63614;56.026;35.960;2023-03-01T01:36:16;98533.59;;;-5.45;66.89
75045;BME280;63614;56.026;35.960;2023-03-01T01:38:41;98539.69;;;-5.48;67.31
75045;BME280;63614;56.026;35.960;2023-03-01T01:41:11;98530.81;;;-5.53;67.06
75045;BME280;63614;56.026;35.960;2023-03-01T01:43:40;98543.47;;;-5.53;67.00
75045;BME280;63614;56.026;35.960;2023-03-01T04:42:47;98580.78;;;-5.68;64.95
75045;BME280;63614;56.026;35.960;2023-03-01T04:45:13;98590.63;;;-5.76;64.98
75045;BME280;63614;56.026;35.960;2023-03-01T04:47:40;98589.53;;;-5.85;64.80
75045;BME280;63614;56.026;35.960;2023-03-01T04:50:06;98598.03;;;-5.73;64.71
75045;BME280;63614;56.026;35.960;2023-03-01T04:52:32;98598.50;;;-5.68;64.81
75045;BME280;63614;56.026;35.960;2023-03-01T04:54:58;98598.72;;;-5.71;64.85
75045;BME280;63614;56.026;35.960;2023-03-01T04:57:23;98599.16;;;-5.77;64.71
75045;BME280;63614;56.026;35.960;2023-03-01T04:59:49;98605.50;;;-5.72;64.57
75045;BME280;63614;56.026;35.960;2023-03-01T05:02:15;98601.25;;;-5.71;64.55
75045;BME280;63614;56.026;35.960;2023-03-01T05:04:41;98606.31;;;-5.71;64.70
75045;BME280;63614;56.026;35.960;2023-03-01T05:07:07;98602.66;;;-5.54;64.03
75045;BME280;63614;56.026;35.960;2023-03-01T05:09:32;98595.84;;;-5.54;63.87
75045;BME280;63614;56.026;35.960;2023-03-01T05:11:58;98602.06;;;-5.58;63.72
75045;BME280;63614;56.026;35.960;2023-03-01T05:14:24;98592.78;;;-5.46;63.81
75045;BME280;63614;56.026;35.960;2023-03-01T05:16:49;98597.56;;;-5.41;63.63
75045;BME280;63614;56.026;35.960;2023-03-01T05:19:15;98603.03;;;-5.48;63.67
75045;BME280;63614;56.026;35.960;2023-03-01T05:21:42;98606.00;;;-5.67;64.51
75045;BME280;63614;56.026;35.960;2023-03-01T05:24:28;98603.66;;;-5.57;64.73
75045;BME280;63614;56.026;35.960;2023-03-01T05:26:54;98621.53;;;-5.58;65.18
75045;BME280;63614;56.026;35.960;2023-03-01T05:29:22;98612.88;;;-5.56;65.26
75045;BME280;63614;56.026;35.960;2023-03-01T05:31:55;98624.75;;;-5.56;65.89
75045;BME280;63614;56.026;35.960;2023-03-01T05:34:32;98636.38;;;-5.54;66.05
75045;BME280;63614;56.026;35.960;2023-03-01T05:36:59;98625.22;;;-5.38;66.21
75045;BME280;63614;56.026;35.960;2023-03-01T05:39:27;98629.63;;;-5.53;67.01
75045;BME280;63614;56.026;35.960;2023-03-01T05:41:58;98636.19;;;-5.51;67.26
75045;BME280;63614;56.026;35.960;2023-03-01T05:44:24;98635.03;;;-5.34;67.10
75045;BME280;63614;56.026;35.960;2023-03-01T05:46:51;98643.94;;;-5.15;66.68
75045;BME280;63614;56.026;35.960;2023-03-01T05:49:17;98650.09;;;-5.06;66.87
75045;BME280;63614;56.026;35.960;2023-03-01T05:51:48;98654.41;;;-4.96;66.63
75045;BME280;63614;56.026;35.960;2023-03-01T05:54:14;98645.34;;;-4.87;66.24
75045;BME280;63614;56.026;35.960;2023-03-01T05:56:40;98648.66;;;-4.98;66.79
75045;BME280;63614;56.026;35.960;2023-03-01T05:59:06;98651.72;;;-5.05;67.29
75045;BME280;63614;56.026;35.960;2023-03-01T06:01:33;98640.63;;;-5.04;67.05
75045;BME280;63614;56.026;35.960;2023-03-01T06:03:59;98644.97;;;-4.69;66.95
75045;BME280;63614;56.026;35.960;2023-03-01T06:06:25;98656.34;;;-4.51;66.39
75045;BME280;63614;56.026;35.960;2023-03-01T06:08:52;98649.16;;;-4.57;66.25
75045;BME280;63614;56.026;35.960;2023-03-01T06:11:19;98652.28;;;-4.53;66.13
75045;BME280;63614;56.026;35.960;2023-03-01T06:13:45;98651.81;;;-4.59;66.62
75045;BME280;63614;56.026;35.960;2023-03-01T06:16:12;98652.03;;;-4.62;66.59
75045;BME280;63614;56.026;35.960;2023-03-01T06:18:39;98658.75;;;-4.25;65.87
75045;BME280;63614;56.026;35.960;2023-03-01T06:21:05;98664.41;;;-4.22;65.93
75045;BME280;63614;56.026;35.960;2023-03-01T06:23:32;98652.31;;;-4.42;66.59
75045;BME280;63614;56.026;35.960;2023-03-01T06:25:58;98669.47;;;-4.22;66.51
75045;BME280;63614;56.026;35.960;2023-03-01T06:28:24;98667.41;;;-4.16;66.60
75045;BME280;63614;56.026;35.960;2023-03-01T06:30:50;98668.94;;;-4.14;66.75
75045;BME280;63614;56.026;35.960;2023-03-01T06:33:17;98670.63;;;-3.79;65.91
75045;BME280;63614;56.026;35.960;2023-03-01T06:35:46;98677.25;;;-4.01;66.55
75045;BME280;63614;56.026;35.960;2023-03-01T06:38:12;98678.78;;;-3.98;66.50
75045;BME280;63614;56.026;35.960;2023-03-01T06:40:40;98686.81;;;-4.15;66.85
75045;BME280;63614;56.026;35.960;2023-03-01T06:43:07;98678.63;;;-4.19;67.44
75045;BME280;63614;56.026;35.960;2023-03-01T06:45:33;98690.22;;;-4.04;67.64
75045;BME280;63614;56.026;35.960;2023-03-01T06:48:06;98688.22;;;-4.11;67.42
75045;BME280;63614;56.026;35.960;2023-03-01T06:50:32;98695.88;;;-4.35;68.17
75045;BME280;63614;56.026;35.960;2023-03-01T06:52:58;98702.59;;;-4.23;68.09
75045;BME280;63614;56.026;35.960;2023-03-01T06:55:24;98708.25;;;-3.95;67.33
75045;BME280;63614;56.026;35.960;2023-03-01T06:57:58;98717.00;;;-3.99;67.32
75045;BME280;63614;56.026;35.960;2023-03-01T07:00:25;98716.94;;;-3.53;66.41
75045;BME280;63614;56.026;35.960;2023-03-01T07:02:51;98714.50;;;-3.77;66.02
75045;BME280;63614;56.026;35.960;2023-03-01T07:05:17;98727.44;;;-3.80;66.59
75045;BME280;63614;56.026;35.960;2023-03-01T07:07:43;98725.63;;;-3.67;66.29
75045;BME280;63614;56.026;35.960;2023-03-01T07:10:10;98720.97;;;-3.84;66.39
75045;BME280;63614;56.026;35.960;2023-03-01T07:12:36;98725.41;;;-3.99;66.60
75045;BME280;63614;56.026;35.960;2023-03-01T07:15:02;98731.50;;;-3.66;66.08
75045;BME280;63614;56.026;35.960;2023-03-01T07:17:29;98726.66;;;-3.69;65.47
75045;BME280;63614;56.026;35.960;2023-03-01T07:19:56;98729.97;;;-3.69;65.36
75045;BME280;63614;56.026;35.960;2023-03-01T07:22:22;98732.09;;;-3.62;65.65
75045;BME280;63614;56.026;35.960;2023-03-01T07:24:47;98730.47;;;-3.75;65.78
75045;BME280;63614;56.026;35.960;2023-03-01T07:27:13;98724.78;;;-4.14;66.57
75045;BME280;63614;56.026;35.960;2023-03-01T07:29:40;98727.16;;;-3.99;65.93
75045;BME280;63614;56.026;35.960;2023-03-01T07:32:06;98734.19;;;-3.56;65.13
75045;BME280;63614;56.026;35.960;2023-03-01T07:34:32;98730.97;;;-3.36;64.06
75045;BME280;63614;56.026;35.960;2023-03-01T07:36:58;98749.44;;;-3.56;64.40
75045;BME280;63614;56.026;35.960;2023-03-01T07:39:24;98742.06;;;-3.25;63.71
75045;BME280;63614;56.026;35.960;2023-03-01T07:41:51;98743.56;;;-3.34;64.08
75045;BME280;63614;56.026;35.960;2023-03-01T07:44:21;98729.22;;;-3.01;62.65
75045;BME280;63614;56.026;35.960;2023-03-01T07:46:47;98748.63;;;-2.78;62.05
75045;BME280;63614;56.026;35.960;2023-03-01T07:49:12;98743.53;;;-2.89;62.12
75045;BME280;63614;56.026;35.960;2023-03-01T07:51:38;98739.63;;;-2.93;61.93
75045;BME280;63614;56.026;35.960;2023-03-01T07:54:04;98744.81;;;-2.83;61.61
75045;BME280;63614;56.026;35.960;2023-03-01T07:56:31;98751.88;;;-2.76;60.96
75045;BME280;63614;56.026;35.960;2023-03-01T07:58:59;98757.47;;;-2.49;60.84
75045;BME280;63614;56.026;35.960;2023-03-01T08:01:24;98755.34;;;-2.77;60.68
75045;BME280;63614;56.026;35.960;2023-03-01T08:03:50;98774.31;;;-2.92;61.03
75045;BME280;63614;56.026;35.960;2023-03-01T08:06:17;98763.09;;;-2.78;61.32
75045;BME280;63614;56.026;35.960;2023-03-01T08:08:43;98776.75;;;-2.68;61.15
75045;BME280;63614;56.026;35.960;2023-03-01T08:11:11;98768.38;;;-2.70;60.91
75045;BME280;63614;56.026;35.960;2023-03-01T08:13:37;98764.00;;;-2.68;61.06
75045;BME280;63614;56.026;35.960;2023-03-01T08:16:05;98766.28;;;-2.42;60.45
75045;BME280;63614;56.026;35.960;2023-03-01T08:18:31;98759.03;;;-2.69;60.81
75045;BME280;63614;56.026;35.960;2023-03-01T08:21:10;98757.03;;;-2.54;60.67
75045;BME280;63614;56.026;35.960;2023-03-01T08:23:36;98762.25;;;-2.56;60.52
75045;BME280;63614;56.026;35.960;2023-03-01T08:26:11;98760.69;;;-2.47;60.18
75045;BME280;63614;56.026;35.960;2023-03-01T08:28:39;98767.63;;;-2.38;59.80
75045;BME280;63614;56.026;35.960;2023-03-01T08:31:26;98780.09;;;-1.91;59.49
75045;BME280;63614;56.026;35.960;2023-03-01T08:33:56;98778.28;;;-2.33;59.72
75045;BME280;63614;56.026;35.960;2023-03-01T08:36:23;98786.69;;;-1.89;58.99
75045;BME280;63614;56.026;35.960;2023-03-01T08:38:50;98790.97;;;-1.89;58.30
75045;BME280;63614;56.026;35.960;2023-03-01T08:41:16;98785.25;;;-2.03;58.73
75045;BME280;63614;56.026;35.960;2023-03-01T08:43:42;98791.47;;;-1.95;58.78
75045;BME280;63614;56.026;35.960;2023-03-01T08:46:08;98790.97;;;-2.10;58.57
75045;BME280;63614;56.026;35.960;2023-03-01T08:48:34;98795.44;;;-2.03;59.48
75045;BME280;63614;56.026;35.960;2023-03-01T08:51:14;98792.63;;;-1.67;58.60
75045;BME280;63614;56.026;35.960;2023-03-01T08:53:41;98800.94;;;-1.86;58.14
75045;BME280;63614;56.026;35.960;2023-03-01T08:56:07;98799.72;;;-1.71;58.08
75045;BME280;63614;56.026;35.960;2023-03-01T08:58:33;98792.75;;;-1.69;57.72
75045;BME280;63614;56.026;35.960;2023-03-01T09:00:59;98793.84;;;-1.61;58.17
75045;BME280;63614;56.026;35.960;2023-03-01T09:03:26;98803.28;;;-1.31;56.67
75045;BME280;63614;56.026;35.960;2023-03-01T09:05:53;98804.34;;;-1.55;56.42
75045;BME280;63614;56.026;35.960;2023-03-01T09:08:19;98800.69;;;-1.62;57.64
75045;BME280;63614;56.026;35.960;2023-03-01T09:10:45;98798.53;;;-1.24;56.79
75045;BME280;63614;56.026;35.960;2023-03-01T09:13:12;98807.22;;;-0.96;55.87
75045;BME280;63614;56.026;35.960;2023-03-01T09:15:38;98804.63;;;-0.75;55.01
75045;BME280;63614;56.026;35.960;2023-03-01T09:18:05;98788.41;;;-0.64;54.57
75045;BME280;63614;56.026;35.960;2023-03-01T09:20:31;98790.34;;;-0.87;54.97
75045;BME280;63614;56.026;35.960;2023-03-01T09:22:58;98795.53;;;-0.58;54.19
75045;BME280;63614;56.026;35.960;2023-03-01T09:25:24;98795.13;;;-0.63;54.38
75045;BME280;63614;56.026;35.960;2023-03-01T09:27:53;98794.19;;;-1.03;54.90
75045;BME280;63614;56.026;35.960;2023-03-01T09:30:20;98793.34;;;-1.13;55.80
75045;BME280;63614;56.026;35.960;2023-03-01T09:32:46;98793.13;;;-1.21;55.37
75045;BME280;63614;56.026;35.960;2023-03-01T09:35:12;98786.91;;;-1.07;55.67
75045;BME280;63614;56.026;35.960;2023-03-01T09:37:39;98784.38;;;-1.29;55.60
75045;BME280;63614;56.026;35.960;2023-03-01T09:40:12;98788.63;;;-1.39;55.48
75045;BME280;63614;56.026;35.960;2023-03-01T09:42:54;98776.81;;;-1.40;55.26
75045;BME280;63614;56.026;35.960;2023-03-01T09:45:35;98791.09;;;-1.06;54.31
75045;BME280;63614;56.026;35.960;2023-03-01T09:48:04;98780.75;;;-1.05;54.14
75045;BME280;63614;56.026;35.960;2023-03-01T09:50:35;98788.44;;;-1.26;54.65
75045;BME280;63614;56.026;35.960;2023-03-01T09:53:15;98787.03;;;-1.09;54.30
75045;BME280;63614;56.026;35.960;2023-03-01T09:55:46;98794.50;;;-1.17;54.96
75045;BME280;63614;56.026;35.960;2023-03-01T10:01:05;98792.34;;;-1.22;55.22
75045;BME280;63614;56.026;35.960;2023-03-01T10:03:39;98788.81;;;-1.00;54.74
75045;BME280;63614;56.026;35.960;2023-03-01T10:06:15;98794.38;;;-0.85;53.86
75045;BME280;63614;56.026;35.960;2023-03-01T10:09:12;98800.69;;;-0.89;53.29
75045;BME280;63614;56.026;35.960;2023-03-01T10:11:45;98800.75;;;-1.10;53.03
75045;BME280;63614;56.026;35.960;2023-03-01T10:14:24;98783.88;;;-1.22;52.94
75045;BME280;63614;56.026;35.960;2023-03-01T10:19:42;98791.22;;;-0.67;52.49
75045;BME280;63614;56.026;35.960;2023-03-01T10:22:16;98773.63;;;-1.01;53.38
75045;BME280;63614;56.026;35.960;2023-03-01T10:24:44;98781.97;;;-0.99;53.61
75045;BME280;63614;56.026;35.960;2023-03-01T10:29:49;98781.97;;;-1.30;52.92
75045;BME280;63614;56.026;35.960;2023-03-01T10:32:18;98787.13;;;-1.20;53.22
75045;BME280;63614;56.026;35.960;2023-03-01T10:34:44;98787.91;;;-0.99;52.58
75045;BME280;63614;56.026;35.960;2023-03-01T10:37:15;98792.53;;;-1.35;53.19
75045;BME280;63614;56.026;35.960;2023-03-01T10:40:06;98811.25;;;-1.03;52.57
75045;BME280;63614;56.026;35.960;2023-03-01T10:42:46;98802.03;;;-1.16;52.41
75045;BME280;63614;56.026;35.960;2023-03-01T10:48:16;98809.50;;;-1.03;53.53
75045;BME280;63614;56.026;35.960;2023-03-01T10:50:47;98813.75;;;-1.13;53.99
75045;BME280;63614;56.026;35.960;2023-03-01T10:53:23;98813.50;;;-0.79;53.96
75045;BME280;63614;56.026;35.960;2023-03-01T10:55:58;98809.25;;;-1.00;53.22
75045;BME280;63614;56.026;35.960;2023-03-01T10:58:25;98813.94;;;-1.05;53.73
75045;BME280;63614;56.026;35.960;2023-03-01T11:00:56;98804.19;;;-0.80;53.88
75045;BME280;63614;56.026;35.960;2023-03-01T11:03:25;98797.94;;;-0.66;53.31
75045;BME280;63614;56.026;35.960;2023-03-01T11:08:45;98805.75;;;-0.58;53.24
75045;BME280;63614;56.026;35.960;2023-03-01T11:11:31;98807.91;;;-0.63;53.47
75045;BME280;63614;56.026;35.960;2023-03-01T11:14:03;98816.91;;;-1.00;53.73
75045;BME280;63614;56.026;35.960;2023-03-01T11:16:40;98818.06;;;-0.83;53.07
75045;BME280;63614;56.026;35.960;2023-03-01T11:21:47;98830.00;;;-1.14;53.24
75045;BME280;63614;56.026;35.960;2023-03-01T11:24:18;98810.09;;;-1.62;54.14
75045;BME280;63614;56.026;35.960;2023-03-01T11:26:50;98825.03;;;-1.37;54.81
75045;BME280;63614;56.026;35.960;2023-03-01T11:29:39;98828.44;;;-1.69;55.51
75045;BME280;63614;56.026;35.960;2023-03-01T11:32:10;98830.88;;;-1.46;55.98
75045;BME280;63614;56.026;35.960;2023-03-01T11:34:57;98823.59;;;-1.30;55.58
75045;BME280;63614;56.026;35.960;2023-03-01T11:37:38;98831.09;;;-1.07;54.77
75045;BME280;63614;56.026;35.960;2023-03-01T11:42:52;98818.63;;;-0.69;54.01
75045;BME280;63614;56.026;35.960;2023-03-01T11:45:23;98818.41;;;-0.57;53.51
75045;BME280;63614;56.026;35.960;2023-03-01T11:50:35;98815.63;;;-0.34;52.96
75045;BME280;63614;56.026;35.960;2023-03-01T12:20:17;98803.09;;;-0.47;52.22
75045;BME280;63614;56.026;35.960;2023-03-01T12:29:26;98780.72;;;-0.74;52.82
75045;BME280;63614;56.026;35.960;2023-03-01T12:34:29;98783.63;;;-1.19;53.25
75045;BME280;63614;56.026;35.960;2023-03-01T12:37:27;98783.75;;;-1.21;53.87
75045;BME280;63614;56.026;35.960;2023-03-01T12:50:54;98782.84;;;-0.79;53.86
75045;BME280;63614;56.026;35.960;2023-03-01T12:53:45;98785.88;;;-0.95;54.21
75045;BME280;63614;56.026;35.960;2023-03-01T12:56:17;98782.22;;;-1.02;54.35
75045;BME280;63614;56.026;35.960;2023-03-01T12:59:06;98768.88;;;-1.16;53.57
75045;BME280;63614;56.026;35.960;2023-03-01T13:04:21;98783.72;;;-1.00;53.04
75045;BME280;63614;56.026;35.960;2023-03-01T13:07:13;98784.34;;;-1.07;53.27
75045;BME280;63614;56.026;35.960;2023-03-01T13:20:47;98773.81;;;-1.66;54.00
75045;BME280;63614;56.026;35.960;2023-03-01T13:23:26;98781.03;;;-1.71;54.69
75045;BME280;63614;56.026;35.960;2023-03-01T13:33:52;98765.81;;;-1.61;54.98
75045;BME280;63614;56.026;35.960;2023-03-01T13:38:57;98762.03;;;-1.88;56.37
75045;BME280;63614;56.026;35.960;2023-03-01T13:44:33;98755.09;;;-1.55;56.86
75045;BME280;63614;56.026;35.960;2023-03-01T13:52:43;98748.06;;;-1.63;56.66
75045;BME280;63614;56.026;35.960;2023-03-01T13:57:48;98735.00;;;-1.49;55.73
75045;BME280;63614;56.026;35.960;2023-03-01T14:00:39;98728.19;;;-1.48;56.17
75045;BME280;63614;56.026;35.960;2023-03-01T14:03:10;98724.88;;;-1.60;56.28
75045;BME280;63614;56.026;35.960;2023-03-01T14:05:37;98723.28;;;-1.61;55.76
75045;BME280;63614;56.026;35.960;2023-03-01T14:08:04;98730.69;;;-1.58;55.84
75045;BME280;63614;56.026;35.960;2023-03-01T14:10:54;98720.03;;;-1.42;55.90
75045;BME280;63614;56.026;35.960;2023-03-01T14:17:00;98724.75;;;-1.58;56.71
75045;BME280;63614;56.026;35.960;2023-03-01T14:19:29;98715.94;;;-1.54;56.87
75045;BME280;63614;56.026;35.960;2023-03-01T14:24:49;98709.03;;;-1.63;56.37
75045;BME280;63614;56.026;35.960;2023-03-01T14:27:15;98701.00;;;-1.59;56.23
75045;BME280;63614;56.026;35.960;2023-03-01T14:29:41;98701.53;;;-1.55;56.46
75045;BME280;63614;56.026;35.960;2023-03-01T14:32:22;98699.53;;;-1.52;56.53
75045;BME280;63614;56.026;35.960;2023-03-01T14:34:50;98707.53;;;-1.66;56.69
75045;BME280;63614;56.026;35.960;2023-03-01T14:37:25;98707.53;;;-1.66;56.83
75045;BME280;63614;56.026;35.960;2023-03-01T14:39:51;98704.19;;;-1.67;56.80
75045;BME280;63614;56.026;35.960;2023-03-01T14:42:19;98705.88;;;-1.77;58.27
75045;BME280;63614;56.026;35.960;2023-03-01T14:44:48;98692.25;;;-1.87;60.25
75045;BME280;63614;56.026;35.960;2023-03-01T14:47:23;98693.25;;;-1.99;61.67
75045;BME280;63614;56.026;35.960;2023-03-01T14:49:56;98709.59;;;-2.02;62.33
75045;BME280;63614;56.026;35.960;2023-03-01T14:52:29;98700.09;;;-2.00;63.06
75045;BME280;63614;56.026;35.960;2023-03-01T14:54:57;98702.56;;;-2.10;64.18
75045;BME280;63614;56.026;35.960;2023-03-01T14:57:25;98706.94;;;-2.22;64.68
75045;BME280;63614;56.026;35.960;2023-03-01T14:59:53;98701.31;;;-2.15;65.05
75045;BME280;63614;56.026;35.960;2023-03-01T15:02:24;98703.00;;;-2.05;65.21
75045;BME280;63614;56.026;35.960;2023-03-01T15:05:02;98699.16;;;-2.20;65.66
75045;BME280;63614;56.026;35.960;2023-03-01T15:07:33;98703.84;;;-2.15;65.67
75045;BME280;63614;56.026;35.960;2023-03-01T15:10:00;98696.38;;;-2.17;65.77
75045;BME280;63614;56.026;35.960;2023-03-01T15:14:54;98698.75;;;-2.15;65.43
75045;BME280;63614;56.026;35.960;2023-03-01T15:17:31;98686.38;;;-2.09;65.34
75045;BME280;63614;56.026;35.960;2023-03-01T15:19:58;98688.41;;;-2.03;65.57
75045;BME280;63614;56.026;35.960;2023-03-01T15:22:26;98680.84;;;-1.93;65.46
75045;BME280;63614;56.026;35.960;2023-03-01T15:24:51;98676.16;;;-1.88;64.88
75045;BME280;63614;56.026;35.960;2023-03-01T15:27:20;98680.84;;;-1.93;65.31
75045;BME280;63614;56.026;35.960;2023-03-01T15:29:53;98678.16;;;-1.91;64.84
75045;BME280;63614;56.026;35.960;2023-03-01T15:32:35;98673.06;;;-1.91;65.38
75045;BME280;63614;56.026;35.960;2023-03-01T15:35:35;98679.38;;;-1.86;64.44
75045;BME280;63614;56.026;35.960;2023-03-01T15:41:03;98675.16;;;-1.75;61.84
75045;BME280;63614;56.026;35.960;2023-03-01T15:43:56;98680.13;;;-1.74;61.17
75045;BME280;63614;56.026;35.960;2023-03-01T15:46:34;98668.69;;;-1.79;60.94
75045;BME280;63614;56.026;35.960;2023-03-01T15:49:05;98672.63;;;-1.75;60.23
75045;BME280;63614;56.026;35.960;2023-03-01T15:51:45;98669.19;;;-1.86;59.39
75045;BME280;63614;56.026;35.960;2023-03-01T15:54:19;98672.22;;;-1.92;59.09
75045;BME280;63614;56.026;35.960;2023-03-01T15:56:46;98665.59;;;-1.83;58.46
75045;BME280;63614;56.026;35.960;2023-03-01T15:59:12;98674.09;;;-1.94;58.55
75045;BME280;63614;56.026;35.960;2023-03-01T16:01:43;98671.81;;;-1.97;57.84
75045;BME280;63614;56.026;35.960;2023-03-01T16:04:13;98676.41;;;-1.91;57.72
75045;BME280;63614;56.026;35.960;2023-03-01T16:06:50;98675.09;;;-1.85;57.86
75045;BME280;63614;56.026;35.960;2023-03-01T16:09:24;98669.69;;;-1.92;58.13
75045;BME280;63614;56.026;35.960;2023-03-01T16:11:51;98673.06;;;-1.91;57.98
75045;BME280;63614;56.026;35.960;2023-03-01T16:14:17;98661.13;;;-1.91;57.70
75045;BME280;63614;56.026;35.960;2023-03-01T16:16:44;98662.34;;;-2.06;58.17
75045;BME280;63614;56.026;35.960;2023-03-01T16:19:11;98654.38;;;-1.92;57.96
75045;BME280;63614;56.026;35.960;2023-03-01T16:21:37;98670.25;;;-1.88;57.45
75045;BME280;63614;56.026;35.960;2023-03-01T16:24:04;98666.88;;;-1.89;57.58
75045;BME280;63614;56.026;35.960;2023-03-01T16:26:30;98660.38;;;-1.81;57.33
75045;BME280;63614;56.026;35.960;2023-03-01T16:28:56;98664.00;;;-1.74;57.38
75045;BME280;63614;56.026;35.960;2023-03-01T16:31:24;98662.53;;;-1.77;57.30
75045;BME280;63614;56.026;35.960;2023-03-01T16:33:57;98656.88;;;-1.80;57.74
75045;BME280;63614;56.026;35.960;2023-03-01T16:36:24;98655.94;;;-1.79;57.97
75045;BME280;63614;56.026;35.960;2023-03-01T16:38:51;98671.06;;;-1.88;58.61
75045;BME280;63614;56.026;35.960;2023-03-01T16:41:19;98665.34;;;-1.80;58.25
75045;BME280;63614;56.026;35.960;2023-03-01T16:43:46;98661.84;;;-1.79;57.76
75045;BME280;63614;56.026;35.960;2023-03-01T16:46:15;98655.28;;;-1.81;58.14
75045;BME280;63614;56.026;35.960;2023-03-01T16:48:45;98648.41;;;-1.81;58.37
75045;BME280;63614;56.026;35.960;2023-03-01T16:51:11;98660.16;;;-1.69;57.83
75045;BME280;63614;56.026;35.960;2023-03-01T16:53:38;98647.28;;;-1.67;58.19
75045;BME280;63614;56.026;35.960;2023-03-01T16:56:05;98645.91;;;-1.71;58.53
75045;BME280;63614;56.026;35.960;2023-03-01T16:58:32;98642.31;;;-1.69;58.56
75045;BME280;63614;56.026;35.960;2023-03-01T17:01:13;98642.16;;;-1.77;58.68
75045;BME280;63614;56.026;35.960;2023-03-01T17:03:40;98642.56;;;-1.72;58.21
75045;BME280;63614;56.026;35.960;2023-03-01T17:06:09;98647.81;;;-1.63;58.54
75045;BME280;63614;56.026;35.960;2023-03-01T17:08:36;98648.97;;;-1.77;59.51
75045;BME280;63614;56.026;35.960;2023-03-01T17:11:07;98646.31;;;-1.66;59.80
75045;BME280;63614;56.026;35.960;2023-03-01T17:13:34;98633.53;;;-1.76;59.96
75045;BME280;63614;56.026;35.960;2023-03-01T17:16:05;98632.63;;;-1.75;59.75
75045;BME280;63614;56.026;35.960;2023-03-01T17:18:31;98625.06;;;-1.86;60.26
75045;BME280;63614;56.026;35.960;2023-03-01T17:20:57;98610.38;;;-1.94;60.75
75045;BME280;63614;56.026;35.960;2023-03-01T17:23:22;98605.47;;;-1.86;60.94
75045;BME280;63614;56.026;35.960;2023-03-01T17:25:48;98608.25;;;-1.89;61.16
75045;BME280;63614;56.026;35.960;2023-03-01T17:28:17;98602.88;;;-1.95;61.69
75045;BME280;63614;56.026;35.960;2023-03-01T17:30:44;98609.09;;;-1.88;61.83
75045;BME280;63614;56.026;35.960;2023-03-01T17:33:12;98605.88;;;-1.80;62.11
75045;BME280;63614;56.026;35.960;2023-03-01T17:35:38;98603.09;;;-1.68;61.57
75045;BME280;63614;56.026;35.960;2023-03-01T17:38:05;98604.03;;;-1.78;61.82
75045;BME280;63614;56.026;35.960;2023-03-01T17:40:31;98599.97;;;-1.81;62.81
75045;BME280;63614;56.026;35.960;2023-03-01T17:42:58;98597.44;;;-1.81;62.25
75045;BME280;63614;56.026;35.960;2023-03-01T17:45:24;98594.22;;;-1.83;62.42
75045;BME280;63614;56.026;35.960;2023-03-01T17:47:50;98595.22;;;-1.95;62.76
75045;BME280;63614;56.026;35.960;2023-03-01T17:50:17;98595.78;;;-1.92;62.88
75045;BME280;63614;56.026;35.960;2023-03-01T17:52:43;98588.28;;;-1.84;62.88
75045;BME280;63614;56.026;35.960;2023-03-01T17:55:09;98590.91;;;-1.74;63.31